createdAt,value
2018-11-03T00:01:41.915Z,90.70
2018-11-03T00:04:10.368Z,90.80
2018-11-03T00:06:38.773Z,90.80
2018-11-03T00:09:09.031Z,90.90
2018-11-03T00:11:37.672Z,91.10
2018-11-03T00:14:06.336Z,91.20
2018-11-03T00:16:34.741Z,91.20
2018-11-03T00:19:03.150Z,91.10
2018-11-03T00:21:31.625Z,91.10
2018-11-03T00:24:00.288Z,91.10
2018-11-03T00:26:28.847Z,91.20
2018-11-03T00:28:57.266Z,91.50
2018-11-03T00:31:25.638Z,91.30
2018-11-03T00:33:54.185Z,91.30
2018-11-03T00:36:22.924Z,91.30
2018-11-03T00:38:51.307Z,91.30
2018-11-03T00:41:19.660Z,91.40
2018-11-03T00:43:48.011Z,91.20
2018-11-03T00:46:16.455Z,91.10
2018-11-03T00:48:45.000Z,91.40
2018-11-03T00:51:13.413Z,91.10
2018-11-03T00:53:41.871Z,91.10
2018-11-03T00:56:10.327Z,91.10
2018-11-03T00:58:38.759Z,91.10
2018-11-03T01:01:07.142Z,91.20
2018-11-03T01:03:36.220Z,91.20
2018-11-03T01:06:04.655Z,91.20
2018-11-03T01:08:33.097Z,91.20
2018-11-03T01:11:01.502Z,91.30
2018-11-03T01:13:29.923Z,91.30
2018-11-03T01:15:58.332Z,91.40
2018-11-03T01:18:26.793Z,91.10
2018-11-03T01:20:55.159Z,91.00
2018-11-03T01:23:23.589Z,90.90
2018-11-03T01:25:52.603Z,90.80
2018-11-03T01:28:21.256Z,91.30
2018-11-03T01:30:50.578Z,91.00
2018-11-03T01:33:18.983Z,91.10
2018-11-03T01:35:47.327Z,91.00
2018-11-03T01:38:16.315Z,91.00
2018-11-03T01:40:44.808Z,91.00
2018-11-03T01:43:13.555Z,91.10
2018-11-03T01:45:42.003Z,91.20
2018-11-03T01:48:10.444Z,91.20
2018-11-03T01:50:38.839Z,91.30
2018-11-03T01:53:07.240Z,91.20
2018-11-03T01:55:35.639Z,91.20
2018-11-03T01:58:04.971Z,91.10
2018-11-03T02:00:33.409Z,90.90
2018-11-03T02:03:01.800Z,90.90
2018-11-03T02:05:31.252Z,90.90
2018-11-03T02:07:59.620Z,90.90
2018-11-03T02:10:28.078Z,90.90
2018-11-03T02:12:56.467Z,90.90
2018-11-03T02:15:24.877Z,91.10
2018-11-03T02:17:53.258Z,91.00
2018-11-03T02:20:21.671Z,91.10
2018-11-03T02:22:50.065Z,91.00
2018-11-03T02:25:18.485Z,91.20
2018-11-03T02:27:46.941Z,91.10
2018-11-03T02:30:15.321Z,91.20
2018-11-03T02:32:43.703Z,91.20
2018-11-03T02:35:12.222Z,91.40
2018-11-03T02:37:41.327Z,91.40
2018-11-03T02:40:12.069Z,91.50
2018-11-03T02:42:41.417Z,91.50
2018-11-03T02:45:10.662Z,91.70
2018-11-03T02:47:39.343Z,91.60
2018-11-03T02:50:10.189Z,91.70
2018-11-03T02:52:38.621Z,91.80
2018-11-03T02:55:07.049Z,91.70
2018-11-03T02:57:35.517Z,91.90
2018-11-03T03:00:04.037Z,92.00
2018-11-03T03:02:33.452Z,92.00
2018-11-03T03:05:01.861Z,92.00
2018-11-03T03:07:30.223Z,91.90
2018-11-03T03:09:58.679Z,91.90
2018-11-03T03:12:27.083Z,91.90
2018-11-03T03:14:55.459Z,92.00
2018-11-03T03:17:23.879Z,92.00
2018-11-03T03:19:52.373Z,91.90
2018-11-03T03:22:20.755Z,91.90
2018-11-03T03:24:49.116Z,92.00
2018-11-03T03:27:17.643Z,92.10
2018-11-03T03:29:46.081Z,91.80
2018-11-03T03:32:14.551Z,91.70
2018-11-03T03:34:43.632Z,91.70
2018-11-03T03:37:12.037Z,91.70
2018-11-03T03:39:41.604Z,91.70
2018-11-03T03:42:10.026Z,91.70
2018-11-03T03:44:38.515Z,91.60
2018-11-03T03:47:06.903Z,91.50
2018-11-03T03:49:35.289Z,91.50
2018-11-03T03:52:03.691Z,91.40
2018-11-03T03:54:32.106Z,91.40
2018-11-03T03:57:00.480Z,91.50
2018-11-03T03:59:28.918Z,91.40
2018-11-03T04:01:57.316Z,91.30
2018-11-03T04:04:25.761Z,91.30
2018-11-03T04:06:54.241Z,91.30
2018-11-03T04:09:22.663Z,91.30
2018-11-03T04:11:51.137Z,91.30
2018-11-03T04:14:19.729Z,91.50
2018-11-03T04:16:48.223Z,91.50
2018-11-03T04:19:16.676Z,91.60
2018-11-03T04:21:47.393Z,91.60
2018-11-03T04:24:15.836Z,91.50
2018-11-03T04:26:44.348Z,91.60
2018-11-03T04:29:12.747Z,91.60
2018-11-03T04:31:41.228Z,91.70
2018-11-03T04:34:09.677Z,91.70
2018-11-03T04:36:38.060Z,91.70
2018-11-03T04:39:07.152Z,92.20
2018-11-03T04:41:35.577Z,91.90
2018-11-03T04:44:04.006Z,92.00
2018-11-03T04:46:32.443Z,92.10
2018-11-03T04:49:00.875Z,92.00
2018-11-03T04:51:29.804Z,92.00
2018-11-03T04:53:58.382Z,92.00
2018-11-03T04:56:26.835Z,92.10
2018-11-03T04:58:55.318Z,92.10
2018-11-03T05:01:23.748Z,92.20
2018-11-03T05:03:52.151Z,92.30
2018-11-03T05:06:20.598Z,92.40
2018-11-03T05:08:49.049Z,92.40
2018-11-03T05:11:17.502Z,92.40
2018-11-03T05:13:45.860Z,92.10
2018-11-03T05:16:14.259Z,92.30
2018-11-03T05:18:42.907Z,92.20
2018-11-03T05:21:11.341Z,92.20
2018-11-03T05:23:39.755Z,92.10
2018-11-03T05:26:08.359Z,92.30
2018-11-03T05:28:36.801Z,92.40
2018-11-03T05:31:05.616Z,92.40
2018-11-03T05:33:34.654Z,92.50
2018-11-03T05:36:03.286Z,92.50
2018-11-03T05:38:31.756Z,92.50
2018-11-03T05:41:00.165Z,92.50
2018-11-03T05:43:28.620Z,92.40
2018-11-03T05:45:57.012Z,92.50
2018-11-03T05:48:25.498Z,92.40
2018-11-03T05:50:53.932Z,92.50
2018-11-03T05:53:22.372Z,92.30
2018-11-03T05:55:50.805Z,92.40
2018-11-03T05:58:19.339Z,92.80
2018-11-03T06:00:47.732Z,92.40
2018-11-03T06:03:16.417Z,92.50
2018-11-03T06:05:45.034Z,92.50
2018-11-03T06:08:13.465Z,92.40
2018-11-03T06:10:41.932Z,92.40
2018-11-03T06:13:10.371Z,92.80
2018-11-03T06:15:38.949Z,92.60
2018-11-03T06:18:07.696Z,92.50
2018-11-03T06:20:36.165Z,92.40
2018-11-03T06:23:04.825Z,92.30
2018-11-03T06:25:33.419Z,92.20
2018-11-03T06:28:01.929Z,92.20
2018-11-03T06:30:30.336Z,92.20
2018-11-03T06:32:58.809Z,92.40
2018-11-03T06:35:27.347Z,92.40
2018-11-03T06:37:55.628Z,92.40
2018-11-03T06:40:24.057Z,92.40
2018-11-03T06:42:52.517Z,92.70
2018-11-03T06:45:20.922Z,92.40
2018-11-03T06:47:49.339Z,92.30
2018-11-03T06:50:17.790Z,92.30
2018-11-03T06:52:46.862Z,92.40
2018-11-03T06:55:15.277Z,92.20
2018-11-03T06:57:43.732Z,91.90
2018-11-03T07:00:12.225Z,92.00
2018-11-03T07:02:40.620Z,91.90
2018-11-03T07:05:09.620Z,91.80
2018-11-03T07:07:38.064Z,91.70
2018-11-03T07:10:07.569Z,91.50
2018-11-03T07:12:36.246Z,91.40
2018-11-03T07:15:04.603Z,91.30
2018-11-03T07:17:33.016Z,91.10
2018-11-03T07:20:01.923Z,90.70
2018-11-03T07:22:30.481Z,90.20
2018-11-03T07:24:59.148Z,89.50
2018-11-03T07:27:27.639Z,88.50
2018-11-03T07:29:56.212Z,87.70
2018-11-03T07:32:24.628Z,86.30
2018-11-03T07:34:53.113Z,85.40
2018-11-03T07:37:21.526Z,85.00
2018-11-03T07:39:49.938Z,85.40
2018-11-03T07:42:18.459Z,86.00
2018-11-03T07:44:46.859Z,86.90
2018-11-03T07:47:15.304Z,88.10
2018-11-03T07:49:43.715Z,89.00
2018-11-03T07:52:12.159Z,89.80
2018-11-03T07:54:40.649Z,89.70
2018-11-03T07:57:09.004Z,89.50
2018-11-03T07:59:37.469Z,89.60
2018-11-03T08:02:06.220Z,89.10
2018-11-03T08:04:34.604Z,88.70
2018-11-03T08:07:03.282Z,88.40
2018-11-03T08:09:31.628Z,87.20
2018-11-03T08:12:00.377Z,87.00
2018-11-03T08:14:29.441Z,86.00
2018-11-03T08:16:57.873Z,83.40
2018-11-03T08:19:26.313Z,81.60
2018-11-03T08:21:54.721Z,80.00
2018-11-03T08:24:23.108Z,79.70
2018-11-03T08:26:51.574Z,79.50
2018-11-03T08:29:20.043Z,79.70
2018-11-03T08:31:48.508Z,80.00
2018-11-03T08:34:16.873Z,79.80
2018-11-03T08:36:45.340Z,79.80
2018-11-03T08:39:13.713Z,81.40
2018-11-03T08:41:42.080Z,82.00
2018-11-03T08:44:10.496Z,82.40
2018-11-03T08:46:38.939Z,82.20
2018-11-03T08:49:07.355Z,82.40
2018-11-03T08:51:35.790Z,82.20
2018-11-03T08:54:05.033Z,81.10
2018-11-03T08:56:33.465Z,81.10
2018-11-03T08:59:01.913Z,80.90
2018-11-03T09:01:30.346Z,80.90
2018-11-03T09:03:58.748Z,81.10
2018-11-03T09:06:27.592Z,81.10
2018-11-03T09:08:55.972Z,81.40
2018-11-03T09:11:26.826Z,80.80
2018-11-03T09:13:55.403Z,80.90
2018-11-03T09:16:23.816Z,82.00
2018-11-03T09:18:52.861Z,81.80
2018-11-03T09:21:21.289Z,81.40
2018-11-03T09:23:49.743Z,81.00
2018-11-03T09:26:19.236Z,81.80
2018-11-03T09:28:47.656Z,82.70
2018-11-03T09:31:16.208Z,83.10
2018-11-03T09:33:45.111Z,83.10
2018-11-03T09:36:13.558Z,81.10
2018-11-03T09:38:42.403Z,80.20
2018-11-03T09:41:10.783Z,80.10
2018-11-03T09:43:39.248Z,78.40
2018-11-03T09:46:08.005Z,77.60
2018-11-03T09:48:36.436Z,77.50
2018-11-03T09:51:05.244Z,77.80
2018-11-03T09:53:33.919Z,78.20
2018-11-03T09:56:02.285Z,77.10
2018-11-03T09:58:30.876Z,78.90
2018-11-03T10:00:59.330Z,77.40
2018-11-03T10:03:27.792Z,76.70
2018-11-03T10:05:57.000Z,77.20
2018-11-03T10:08:25.481Z,77.10
2018-11-03T10:10:53.991Z,76.00
2018-11-03T10:13:22.401Z,75.40
2018-11-03T10:15:51.102Z,74.70
2018-11-03T10:18:19.640Z,74.00
2018-11-03T10:20:48.120Z,72.50
2018-11-03T10:23:16.553Z,72.50
2018-11-03T10:25:45.023Z,72.20
2018-11-03T10:28:13.574Z,72.80
2018-11-03T10:30:41.960Z,73.40
2018-11-03T10:33:12.493Z,73.40
2018-11-03T10:35:40.893Z,73.10
2018-11-03T10:38:09.421Z,72.30
2018-11-03T10:40:37.869Z,72.80
2018-11-03T10:43:06.613Z,73.00
2018-11-03T10:45:35.114Z,74.90
2018-11-03T10:48:03.589Z,74.30
2018-11-03T10:50:32.035Z,74.30
2018-11-03T10:53:00.544Z,75.20
2018-11-03T10:55:29.015Z,74.40
2018-11-03T10:57:57.475Z,75.20
2018-11-03T11:00:31.369Z,75.00
2018-11-03T11:03:07.288Z,75.50
2018-11-03T11:06:41.765Z,74.80
2018-11-03T11:09:15.504Z,72.40
2018-11-03T11:11:49.312Z,73.50
2018-11-03T11:14:18.827Z,75.10
2018-11-03T11:16:47.285Z,75.00
2018-11-03T11:19:15.712Z,75.50
2018-11-03T11:21:44.094Z,74.80
2018-11-03T11:24:13.208Z,76.00
2018-11-03T11:26:41.565Z,76.30
2018-11-03T11:29:10.040Z,77.80
2018-11-03T11:31:38.571Z,77.90
2018-11-03T11:34:07.105Z,77.50
2018-11-03T11:36:35.649Z,76.80
2018-11-03T11:39:05.297Z,75.70
2018-11-03T11:41:33.745Z,75.10
2018-11-03T11:44:02.213Z,76.20
2018-11-03T11:46:30.677Z,74.80
2018-11-03T11:48:59.128Z,75.40
2018-11-03T11:51:27.610Z,75.70
2018-11-03T11:53:56.072Z,75.90
2018-11-03T11:56:24.605Z,77.00
2018-11-03T11:58:53.041Z,77.10
2018-11-03T12:01:21.485Z,74.40
2018-11-03T12:03:49.954Z,73.50
2018-11-03T12:06:18.379Z,74.20
2018-11-03T12:08:46.833Z,74.10
2018-11-03T12:11:15.443Z,73.20
2018-11-03T12:13:43.929Z,73.10
2018-11-03T12:16:12.465Z,73.90
2018-11-03T12:18:40.917Z,73.00
2018-11-03T12:21:09.510Z,74.90
2018-11-03T12:23:37.979Z,76.30
2018-11-03T12:26:06.584Z,76.90
2018-11-03T12:28:35.073Z,76.60
2018-11-03T12:31:03.538Z,75.90
2018-11-03T12:33:31.981Z,76.40
2018-11-03T12:36:00.435Z,75.50
2018-11-03T12:38:28.927Z,75.90
2018-11-03T12:40:57.410Z,76.00
2018-11-03T12:43:25.756Z,75.20
2018-11-03T12:45:54.284Z,74.40
2018-11-03T12:48:22.904Z,75.00
2018-11-03T12:50:51.584Z,75.50
2018-11-03T12:53:19.939Z,76.00
2018-11-03T12:55:48.448Z,75.90
2018-11-03T12:58:16.991Z,76.50
2018-11-03T13:00:46.024Z,76.70
2018-11-03T13:03:14.767Z,77.20
2018-11-03T13:05:43.255Z,76.40
2018-11-03T13:08:11.723Z,77.20
2018-11-03T13:10:40.210Z,77.90
2018-11-03T13:13:08.676Z,77.70
2018-11-03T13:15:37.392Z,78.10
2018-11-03T13:18:06.004Z,79.10
2018-11-03T13:20:34.529Z,78.20
2018-11-03T13:23:03.012Z,78.30
2018-11-03T13:25:31.533Z,78.50
2018-11-03T13:27:59.972Z,79.30
2018-11-03T13:30:28.413Z,79.80
2018-11-03T13:33:03.473Z,80.00
2018-11-03T13:35:34.040Z,80.10
2018-11-03T13:38:02.452Z,80.60
2018-11-03T13:40:30.906Z,81.10
2018-11-03T13:42:59.390Z,81.50
2018-11-03T13:45:27.967Z,81.90
2018-11-03T13:47:56.388Z,81.90
2018-11-03T13:50:24.760Z,81.90
2018-11-03T13:52:53.148Z,82.20
2018-11-03T13:55:21.617Z,82.30
2018-11-03T13:57:49.976Z,82.20
2018-11-03T14:00:19.037Z,82.50
2018-11-03T14:02:48.367Z,82.80
2018-11-03T14:05:16.787Z,83.10
2018-11-03T14:07:46.062Z,83.40
2018-11-03T14:10:15.656Z,83.50
2018-11-03T14:12:45.861Z,83.70
2018-11-03T14:15:15.675Z,84.20
2018-11-03T14:17:44.372Z,84.40
2018-11-03T14:20:14.105Z,84.50
2018-11-03T14:22:43.682Z,84.90
2018-11-03T14:25:13.212Z,85.20
2018-11-03T14:27:42.444Z,85.50
2018-11-03T14:30:12.049Z,85.80
2018-11-03T14:32:40.593Z,85.90
2018-11-03T14:35:09.841Z,86.40
2018-11-03T14:37:38.557Z,85.70
2018-11-03T14:40:09.413Z,86.80
2018-11-03T14:42:38.197Z,86.90
2018-11-03T14:45:07.880Z,87.30
2018-11-03T14:47:36.562Z,87.40
2018-11-03T14:50:06.079Z,87.80
2018-11-03T14:52:36.454Z,87.90
2018-11-03T14:55:05.484Z,87.90
2018-11-03T14:57:33.885Z,88.50
2018-11-03T15:00:02.952Z,88.70
2018-11-03T15:02:31.524Z,88.80
2018-11-03T15:04:59.970Z,89.10
2018-11-03T15:07:28.750Z,89.40
2018-11-03T15:09:57.209Z,89.50
2018-11-03T15:12:25.765Z,89.70
2018-11-03T15:14:54.283Z,90.00
2018-11-03T15:17:22.686Z,90.00
2018-11-03T15:19:51.429Z,90.20
2018-11-03T15:22:20.110Z,90.20
2018-11-03T15:24:48.557Z,90.30
2018-11-03T15:27:17.101Z,90.40
2018-11-03T15:29:45.521Z,90.50
2018-11-03T15:32:14.156Z,90.60
2018-11-03T15:34:42.643Z,90.70
2018-11-03T15:37:11.128Z,90.80
2018-11-03T15:39:39.976Z,90.90
2018-11-03T15:42:08.377Z,91.10
2018-11-03T15:44:36.937Z,91.20
2018-11-03T15:47:05.549Z,91.70
2018-11-03T15:49:34.039Z,91.40
2018-11-03T15:52:02.515Z,91.40
2018-11-03T15:54:31.128Z,91.50
2018-11-03T15:56:59.672Z,91.50
2018-11-03T15:59:28.317Z,91.50
2018-11-03T16:01:56.997Z,91.60
2018-11-03T16:04:25.410Z,91.70
2018-11-03T16:06:53.877Z,91.80
2018-11-03T16:09:22.358Z,91.70
2018-11-03T16:11:50.875Z,91.90
2018-11-03T16:14:19.340Z,92.20
2018-11-03T16:16:47.791Z,91.90
2018-11-03T16:19:16.299Z,92.00
2018-11-03T16:21:44.764Z,91.90
2018-11-03T16:24:13.532Z,92.00
2018-11-03T16:26:42.411Z,92.00
2018-11-03T16:29:10.974Z,92.00
2018-11-03T16:31:39.483Z,92.10
2018-11-03T16:34:07.879Z,92.20
2018-11-03T16:36:36.295Z,92.20
2018-11-03T16:39:07.446Z,92.20
2018-11-03T16:41:35.851Z,92.20
2018-11-03T16:44:05.008Z,92.30
2018-11-03T16:46:33.665Z,92.40
2018-11-03T16:49:02.084Z,92.40
2018-11-03T16:51:30.557Z,92.40
2018-11-03T16:53:58.944Z,92.40
2018-11-03T16:56:27.417Z,92.40
2018-11-03T16:58:55.977Z,92.60
2018-11-03T17:01:24.455Z,92.60
2018-11-03T17:03:53.303Z,92.80
2018-11-03T17:06:21.889Z,92.80
2018-11-03T17:08:50.706Z,92.90
2018-11-03T17:11:19.179Z,92.90
2018-11-03T17:13:48.742Z,93.00
2018-11-03T17:16:17.430Z,93.00
2018-11-03T17:18:46.114Z,93.00
2018-11-03T17:21:14.532Z,93.00
2018-11-03T17:23:43.905Z,93.00
2018-11-03T17:26:12.368Z,93.00
2018-11-03T17:28:40.732Z,93.10
2018-11-03T17:31:09.219Z,93.20
2018-11-03T17:33:37.584Z,93.30
2018-11-03T17:36:06.097Z,93.40
2018-11-03T17:38:34.484Z,93.40
2018-11-03T17:41:02.914Z,93.50
2018-11-03T17:43:31.338Z,94.00
2018-11-03T17:45:59.849Z,93.70
2018-11-03T17:48:28.290Z,93.70
2018-11-03T17:50:56.719Z,93.60
2018-11-03T17:53:25.156Z,93.50
2018-11-03T17:55:54.128Z,93.50
2018-11-03T17:58:22.536Z,93.50
2018-11-03T18:00:51.060Z,93.50
2018-11-03T18:03:19.405Z,93.50
2018-11-03T18:05:47.789Z,93.40
2018-11-03T18:08:16.166Z,93.40
2018-11-03T18:10:44.721Z,93.40
2018-11-03T18:13:13.325Z,93.40
2018-11-03T18:15:41.650Z,93.40
2018-11-03T18:18:10.034Z,93.40
2018-11-03T18:20:38.447Z,93.40
2018-11-03T18:23:06.856Z,93.70
2018-11-03T18:25:35.240Z,93.40
2018-11-03T18:28:03.648Z,93.30
2018-11-03T18:30:31.998Z,93.40
2018-11-03T18:33:00.557Z,93.30
2018-11-03T18:35:28.875Z,93.40
2018-11-03T18:37:57.391Z,93.50
2018-11-03T18:40:25.763Z,93.50
2018-11-03T18:42:54.219Z,93.30
2018-11-03T18:45:22.616Z,93.40
2018-11-03T18:47:51.099Z,93.30
2018-11-03T18:50:19.522Z,93.30
2018-11-03T18:52:48.076Z,93.30
2018-11-03T18:55:16.436Z,93.30
2018-11-03T18:57:44.848Z,93.30
2018-11-03T19:00:13.284Z,93.30
2018-11-03T19:02:42.153Z,93.30
2018-11-03T19:05:10.497Z,93.30
2018-11-03T19:07:38.904Z,93.20
2018-11-03T19:10:07.994Z,93.20
2018-11-03T19:12:36.505Z,93.20
2018-11-03T19:15:05.744Z,93.20
2018-11-03T19:17:35.080Z,93.20
2018-11-03T19:20:03.419Z,93.20
2018-11-03T19:22:31.781Z,93.20
2018-11-03T19:25:00.410Z,93.20
2018-11-03T19:27:28.832Z,93.20
2018-11-03T19:29:57.286Z,93.20
2018-11-03T19:32:25.810Z,93.30
2018-11-03T19:34:54.423Z,93.30
2018-11-03T19:37:22.792Z,93.30
2018-11-03T19:39:51.197Z,93.30
2018-11-03T19:42:19.551Z,93.30
2018-11-03T19:44:48.091Z,93.40
2018-11-03T19:47:16.717Z,93.40
2018-11-03T19:49:45.516Z,93.40
2018-11-03T19:52:14.013Z,93.40
2018-11-03T19:54:42.567Z,93.40
2018-11-03T19:57:10.941Z,93.40
2018-11-03T19:59:39.340Z,93.40
2018-11-03T20:02:07.754Z,93.40
2018-11-03T20:04:36.735Z,93.40
2018-11-03T20:07:05.303Z,93.50
2018-11-03T20:09:33.651Z,93.50
2018-11-03T20:12:02.105Z,93.60
2018-11-03T20:14:30.538Z,93.60
2018-11-03T20:16:58.952Z,93.70
2018-11-03T20:19:27.516Z,93.70
2018-11-03T20:21:56.225Z,93.80
2018-11-03T20:24:24.656Z,93.80
2018-11-03T20:26:53.045Z,93.90
2018-11-03T20:29:21.468Z,93.90
2018-11-03T20:31:49.973Z,94.00
2018-11-03T20:34:18.276Z,93.90
2018-11-03T20:36:46.685Z,94.00
2018-11-03T20:39:15.259Z,94.00
2018-11-03T20:41:43.739Z,94.00
2018-11-03T20:44:12.148Z,94.00
2018-11-03T20:46:40.772Z,94.00
2018-11-03T20:49:09.235Z,94.10
2018-11-03T20:51:37.619Z,94.00
2018-11-03T20:54:06.359Z,94.00
2018-11-03T20:56:34.793Z,94.00
2018-11-03T20:59:03.259Z,94.10
2018-11-03T21:01:31.631Z,94.10
2018-11-03T21:04:00.096Z,94.20
2018-11-03T21:06:28.652Z,94.10
2018-11-03T21:08:57.052Z,94.20
2018-11-03T21:11:25.491Z,94.20
2018-11-03T21:13:53.855Z,94.20
2018-11-03T21:16:22.281Z,94.30
2018-11-03T21:18:50.720Z,94.30
2018-11-03T21:21:19.162Z,94.60
2018-11-03T21:23:47.586Z,94.40
2018-11-03T21:26:16.056Z,94.60
2018-11-03T21:28:44.517Z,94.60
2018-11-03T21:31:12.908Z,94.60
2018-11-03T21:33:41.893Z,94.70
2018-11-03T21:36:10.431Z,94.80
2018-11-03T21:38:38.950Z,94.80
2018-11-03T21:41:07.405Z,94.80
2018-11-03T21:43:35.926Z,94.90
2018-11-03T21:46:04.571Z,94.70
2018-11-03T21:48:32.923Z,95.00
2018-11-03T21:51:01.268Z,95.00
2018-11-03T21:53:29.610Z,95.10
2018-11-03T21:55:58.085Z,95.20
2018-11-03T21:58:26.517Z,95.20
2018-11-03T22:00:54.917Z,95.30
2018-11-03T22:03:23.355Z,95.40
2018-11-03T22:05:51.799Z,95.40
2018-11-03T22:08:20.169Z,95.50
2018-11-03T22:10:48.637Z,95.50
2018-11-03T22:13:17.045Z,95.50
2018-11-03T22:15:45.502Z,95.60
2018-11-03T22:18:13.892Z,95.70
2018-11-03T22:20:42.381Z,95.70
2018-11-03T22:23:10.814Z,95.90
2018-11-03T22:25:39.177Z,95.90
2018-11-03T22:28:07.621Z,95.90
2018-11-03T22:30:35.927Z,96.00
2018-11-03T22:33:04.469Z,96.00
2018-11-03T22:35:32.871Z,96.10
2018-11-03T22:38:01.301Z,96.10
2018-11-03T22:40:29.763Z,96.10
2018-11-03T22:42:58.181Z,96.10
2018-11-03T22:45:26.607Z,96.10
2018-11-03T22:47:55.014Z,96.10
2018-11-03T22:50:23.444Z,96.10
2018-11-03T22:52:51.884Z,96.10
2018-11-03T22:55:20.317Z,96.20
2018-11-03T22:57:48.735Z,96.20
2018-11-03T23:00:17.512Z,96.30
2018-11-03T23:02:46.009Z,96.30
2018-11-03T23:05:14.468Z,96.20
2018-11-03T23:07:42.950Z,96.30
2018-11-03T23:10:11.369Z,96.30
2018-11-03T23:12:39.891Z,96.40
2018-11-03T23:15:08.852Z,96.40
2018-11-03T23:17:38.143Z,96.50
2018-11-03T23:20:09.388Z,96.60
2018-11-03T23:22:37.865Z,96.60
2018-11-03T23:25:06.871Z,96.70
2018-11-03T23:27:35.680Z,96.80
2018-11-03T23:30:05.552Z,96.80
2018-11-03T23:32:33.827Z,96.90
2018-11-03T23:35:02.251Z,97.00
2018-11-03T23:37:30.620Z,97.00
2018-11-03T23:39:59.034Z,96.90
2018-11-03T23:42:27.485Z,97.10
2018-11-03T23:44:56.444Z,97.10
2018-11-03T23:47:24.851Z,97.10
2018-11-03T23:49:53.299Z,97.10
2018-11-03T23:52:27.034Z,97.10
2018-11-03T23:54:55.403Z,97.10
2018-11-03T23:57:23.780Z,97.10
2018-11-03T23:59:52.319Z,97.00
